Terminal Aerodrome Forecast
Issued by NWS

Home | Current Version | Previous Version | Text Only | Print | Product List | Glossary On
Versions: 1 2 3 4 5 6 7 8 9 10 11 12 13 14 15 16 17 18 19
983
FTUS46 KSEW 191120
TAFBFI
TAF
KBFI 191120Z 1912/2012 15006KT P6SM SCT070 OVC130
     FM192000 16011G18KT P6SM VCSH SCT040 OVC070
     FM192200 17015G23KT 6SM -RA BR SCT012 BKN019 OVC030
     FM200200 17015G25KT 5SM -RA BR BKN012 OVC019
     FM200500 18008KT P6SM -SHRA SCT015 BKN022 OVC030=

USA.gov is the U.S. government's official web portal to all federal, state and local government web resources and services.